Observations for BERGAMO ORIO SERIO, Italy (LIME)

LIME 201950Z 01003KT 4000 BR NSC 06/04 Q1025 NOSIG  
LIME 201920Z 01003KT 4000 BR NSC 06/05 Q1025 NOSIG  
LIME 201850Z 05002KT 4000 BR NSC 07/04 Q1024 NOSIG  
LIME 201820Z VRB01KT 4000 BR NSC 06/04 Q1024 NOSIG  
LIME 201750Z VRB02KT 4000 BR NSC 07/04 Q1024 NOSIG  
LIME 201720Z 12002KT 4000 BR NSC 08/05 Q1024 NOSIG  
LIME 201650Z 18003KT 4000 BR NSC 09/05 Q1023 NOSIG  
LIME 201620Z 20004KT 4000 BR NSC 10/05 Q1023 NOSIG  
LIME 201550Z 21004KT 170V250 4000 BR NSC 11/05 Q1023 NOSIG  
LIME 201520Z 22004KT 180V240 4000 BR NSC 11/05 Q1023 NOSIG  
LIME 201450Z 20005KT 180V250 4000 BR NSC 11/05 Q1023 NOSIG  
LIME 201420Z 20005KT 170V230 4000 BR NSC 10/05 Q1023 NOSIG  
LIME 201350Z 22005KT 190V280 4000 BR NSC 10/05 Q1023 NOSIG  
LIME 201250Z 18004KT 130V210 4000 BR NSC 09/06 Q1024 NOSIG  
LIME 201220Z 19005KT 150V230 4500 2000SE PRFG FEW002 09/05 Q1024 NOSIG  
LIME 201150Z 19004KT 160V220 3500 1500SE PRFG FEW002 08/05 Q1024 NOSIG  
LIME 201120Z 19004KT 3500 1500SE PRFG FEW002 07/05 Q1024 NOSIG  
LIME 201050Z 16003KT 120V200 4000 1500SE PRFG FEW002 07/04 Q1025 NOSIG  
LIME 201020Z 17004KT 130V220 4000 1500SE PRFG FEW002 06/04 Q1025 NOSIG  
LIME 200950Z 15003KT 120V180 4000 1500SE PRFG NSC 06/04 Q1025 NOSIG 
LIME 200920Z VRB02KT 4000 1500SE PRFG NSC 06/04 Q1025 NOSIG 
LIME 200850Z VRB01KT 4000 1500SE PRFG NSC 06/04 Q1024 NOSIG 
LIME 200820Z 11003KT 4000 1500 PRFG NSC 04/03 Q1024 NOSIG   
LIME 200750Z 07002KT 5000 2000SE PRFG NSC 03/01 Q1024 NOSIG 
LIME 200720Z VRB01KT 5000 2000E BR NSC 02/01 Q1024 NOSIG
LIME 200650Z VRB01KT 3500 BR NSC 01/00 Q1023 NOSIG  
LIME 200620Z 02002KT 3000 BR NSC 01/01 Q1023 NOSIG  
LIME 200550Z 01003KT 3500 BR NSC 02/01 Q1023 NOSIG  
LIME 200520Z 01004KT 3000 BR NSC 02/01 Q1023 NOSIG  
LIME 200450Z 04002KT 3000 BR NSC 01/00 Q1023 NOSIG  
LIME 200420Z 01002KT 2000 R28/1400U BR NSC 01/01 Q1023 NOSIG
LIME 200350Z 36001KT 1500 BR NSC 02/01 Q1023 NOSIG  
LIME 200320Z VRB01KT 1500 BR NSC 02/01 Q1023 NOSIG  
LIME 200250Z 00000KT 2000 BR NSC 03/02 Q1023 NOSIG  
LIME 200220Z VRB01KT 4000 BR NSC 03/02 Q1023 NOSIG  
LIME 200150Z VRB01KT 5000 BR NSC 03/02 Q1023 NOSIG  
LIME 200120Z VRB01KT 7000 NSC 03/02 Q1023 NOSIG 
LIME 200050Z 01004KT 7000 NSC 04/02 Q1023 NOSIG 
LIME 200020Z VRB02KT 7000 NSC 04/02 Q1022 NOSIG 
LIME 192350Z 36003KT 7000 NSC 04/02 Q1023 NOSIG 
LIME 192320Z 34002KT 8000 NSC 04/02 Q1022 NOSIG 
LIME 192250Z 34002KT 8000 NSC 04/03 Q1022 NOSIG 
LIME 192220Z 34001KT 8000 NSC 04/02 Q1022 NOSIG 
LIME 192150Z 34002KT 8000 NSC 06/03 Q1022 NOSIG 
LIME 192120Z 33002KT 8000 NSC 07/03 Q1022 NOSIG 
LIME 192050Z 31003KT 270V330 8000 NSC 08/03 Q1022 NOSIG 
LIME 192020Z 29003KT 250V310 7000 NSC 07/03 Q1022 NOSIG 
LIME 191950Z 36005KT 7000 NSC 06/03 Q1021 NOSIG 
LIME 191920Z 01004KT 8000 NSC 07/03 Q1021 NOSIG